Time;durP1;ratioP1;P1;durP2;ratioP2;P2;SDS_P1;SDS_P2;PMS_P1;PMS_P2;Temp;Humidity;BMP_temperature;BMP_pressure;BME280_temperature;BME280_humidity;BME280_pressure;Samples;Min_cycle;Max_cycle;Signal;HPM_P1;HPM_P2
2021/04/30 00:00:59;;;;;;;19.17;14.57;;;7.90;59.50;;;;;;4956033;29;20178;-86
2021/04/30 00:03:24;;;;;;;17.30;15.50;;;8.00;59.60;;;;;;4954554;29;20233;-86
2021/04/30 00:05:50;;;;;;;15.30;13.90;;;7.90;59.80;;;;;;4954631;29;20193;-86
2021/04/30 00:08:16;;;;;;;19.90;14.57;;;7.80;59.70;;;;;;4953257;29;20265;-87
2021/04/30 00:10:42;;;;;;;21.33;16.30;;;7.80;60.30;;;;;;4954696;28;20414;-86
2021/04/30 00:13:09;;;;;;;15.83;14.13;;;7.80;60.20;;;;;;4958152;29;20749;-87
2021/04/30 00:15:35;;;;;;;15.70;14.10;;;7.80;60.30;;;;;;4958185;29;20810;-86
2021/04/30 00:18:05;;;;;;;21.33;14.87;;;7.70;61.20;;;;;;4958063;29;20411;-86
2021/04/30 00:20:35;;;;;;;26.87;17.17;;;7.70;61.40;;;;;;4958142;29;20860;-87
2021/04/30 00:23:01;;;;;;;23.00;17.40;;;7.70;61.40;;;;;;4957755;29;20466;-85
2021/04/30 00:25:28;;;;;;;20.67;16.50;;;7.70;61.80;;;;;;4940679;29;20426;-87
2021/04/30 00:27:53;;;;;;;17.57;15.03;;;7.70;62.30;;;;;;4957925;29;20418;-86
2021/04/30 00:30:20;;;;;;;19.00;17.00;;;7.60;62.10;;;;;;4957936;29;20448;-87
2021/04/30 00:32:45;;;;;;;18.27;16.47;;;7.80;62.50;;;;;;4958333;29;20250;-87
2021/04/30 00:35:11;;;;;;;17.60;15.43;;;7.80;62.20;;;;;;4962516;29;20381;-87
2021/04/30 00:37:38;;;;;;;17.73;15.30;;;7.80;62.20;;;;;;4967214;29;20186;-87
2021/04/30 00:40:10;;;;;;;19.87;16.50;;;7.70;62.80;;;;;;4978451;29;20182;-87
2021/04/30 00:42:36;;;;;;;20.77;17.77;;;7.80;62.50;;;;;;4964449;29;20509;-87
2021/04/30 00:45:04;;;;;;;21.03;16.77;;;7.80;62.80;;;;;;4958445;29;20419;-86
2021/04/30 00:47:33;;;;;;;19.90;13.63;;;7.80;62.40;;;;;;4958726;29;20846;-87
2021/04/30 00:50:10;;;;;;;21.93;17.10;;;7.80;62.40;;;;;;4960582;29;20458;-87
2021/04/30 00:52:36;;;;;;;21.53;15.60;;;7.70;62.50;;;;;;4964068;29;20473;-87
2021/04/30 00:55:11;;;;;;;18.60;16.80;;;7.70;63.00;;;;;;4961211;29;20389;-86
2021/04/30 00:57:38;;;;;;;25.03;18.70;;;7.70;63.10;;;;;;4960457;29;20421;-88
2021/04/30 01:00:05;;;;;;;21.17;17.10;;;7.60;63.70;;;;;;4957919;29;20496;-87
2021/04/30 01:02:31;;;;;;;20.07;15.13;;;7.60;63.60;;;;;;4957308;29;20429;-87
2021/04/30 01:04:57;;;;;;;21.43;16.90;;;7.70;62.90;;;;;;4955845;29;20465;-87
2021/04/30 01:07:23;;;;;;;21.80;18.20;;;7.60;63.00;;;;;;4939946;29;20174;-87
2021/04/30 01:09:48;;;;;;;25.27;17.07;;;7.60;63.10;;;;;;4957300;29;20908;-87
2021/04/30 01:12:14;;;;;;;23.63;17.83;;;7.50;63.00;;;;;;4956923;29;20198;-87
2021/04/30 01:14:40;;;;;;;25.43;20.00;;;7.50;63.50;;;;;;4956999;29;20672;-87
2021/04/30 01:17:05;;;;;;;21.67;18.73;;;7.50;63.50;;;;;;4956952;29;20251;-87
2021/04/30 01:19:31;;;;;;;22.40;17.20;;;7.60;63.70;;;;;;4957025;29;20662;-87
2021/04/30 01:21:58;;;;;;;25.73;19.30;;;7.70;62.80;;;;;;4956730;28;20410;-87
2021/04/30 01:24:24;;;;;;;23.03;17.90;;;7.70;62.90;;;;;;4956746;29;20186;-87
2021/04/30 01:26:51;;;;;;;20.07;16.40;;;7.70;62.80;;;;;;4956863;29;20423;-87
2021/04/30 01:29:17;;;;;;;20.93;16.53;;;7.80;62.30;;;;;;4939503;29;20937;-87
2021/04/30 01:31:43;;;;;;;17.87;16.00;;;7.80;61.90;;;;;;4956956;29;20466;-87
2021/04/30 01:34:10;;;;;;;22.13;15.20;;;7.80;61.30;;;;;;4956770;29;20201;-87
2021/04/30 01:36:36;;;;;;;21.03;18.13;;;7.90;61.30;;;;;;4956671;29;20440;-87
2021/04/30 01:39:05;;;;;;;16.43;14.67;;;7.80;61.40;;;;;;4956619;29;20884;-87
2021/04/30 01:41:32;;;;;;;28.47;17.57;;;7.80;61.80;;;;;;4956586;29;20517;-87
2021/04/30 01:43:57;;;;;;;28.43;18.20;;;7.80;61.70;;;;;;4956556;29;20425;-87
2021/04/30 01:46:23;;;;;;;21.57;17.17;;;7.80;62.60;;;;;;4956518;29;20754;-87
2021/04/30 01:48:48;;;;;;;17.57;14.50;;;7.70;62.10;;;;;;4956397;29;20170;-86
2021/04/30 01:51:14;;;;;;;15.67;14.07;;;7.80;61.90;;;;;;4956418;29;20182;-86
2021/04/30 01:53:40;;;;;;;18.43;16.40;;;7.70;61.50;;;;;;4956520;29;20592;-86
2021/04/30 01:56:06;;;;;;;17.40;13.80;;;7.70;61.10;;;;;;4956500;29;20241;-86
2021/04/30 01:58:33;;;;;;;21.17;15.43;;;7.70;61.00;;;;;;4956236;29;20663;-86
2021/04/30 02:00:59;;;;;;;20.53;16.27;;;9.30;63.50;;;;;;4938995;29;20410;-86
2021/04/30 02:03:25;;;;;;;20.33;14.97;;;7.50;61.90;;;;;;4956063;29;20581;-85
2021/04/30 02:05:51;;;;;;;17.83;14.60;;;7.60;61.80;;;;;;4954826;28;20454;-85
2021/04/30 02:08:20;;;;;;;14.77;13.27;;;7.70;61.70;;;;;;4939104;29;20816;-86
2021/04/30 02:10:46;;;;;;;17.27;14.73;;;7.60;61.40;;;;;;4955878;29;20433;-86
2021/04/30 02:13:15;;;;;;;16.67;13.57;;;7.60;61.70;;;;;;4938542;29;20210;-86
2021/04/30 02:15:44;;;;;;;16.23;12.10;;;7.50;62.60;;;;;;4938639;29;20418;-86
2021/04/30 02:18:10;;;;;;;16.30;13.43;;;7.60;62.50;;;;;;4955867;29;20875;-85
2021/04/30 02:20:36;;;;;;;16.43;13.47;;;7.50;62.50;;;;;;4955947;29;20422;-86
2021/04/30 02:23:02;;;;;;;15.13;13.10;;;7.50;62.80;;;;;;4955803;29;20883;-86
2021/04/30 02:25:29;;;;;;;19.83;13.70;;;7.50;62.30;;;;;;4955822;29;20182;-86
2021/04/30 02:27:56;;;;;;;15.97;13.73;;;7.50;63.10;;;;;;4955678;29;20470;-85
2021/04/30 02:30:23;;;;;;;17.40;13.77;;;7.50;62.80;;;;;;4938483;29;20413;-85
2021/04/30 02:32:51;;;;;;;15.00;13.40;;;7.40;63.30;;;;;;4955497;29;20473;-86
2021/04/30 02:35:20;;;;;;;18.10;13.40;;;6.90;63.00;;;;;;4937800;29;20445;-85
2021/04/30 02:37:46;;;;;;;24.90;15.27;;;7.40;63.70;;;;;;4955671;29;20430;-87
2021/04/30 02:40:15;;;;;;;16.80;14.00;;;7.50;63.90;;;;;;4955459;29;20449;-86
2021/04/30 02:42:41;;;;;;;20.30;16.23;;;7.40;64.00;;;;;;4955662;29;20484;-86
2021/04/30 02:45:08;;;;;;;15.50;13.97;;;7.40;64.10;;;;;;4955431;29;20422;-86
2021/04/30 02:47:35;;;;;;;19.90;13.97;;;7.30;64.20;;;;;;4954216;28;20418;-86
2021/04/30 02:50:02;;;;;;;21.60;15.20;;;7.30;64.50;;;;;;4937885;29;20477;-86
2021/04/30 02:52:28;;;;;;;18.80;14.37;;;7.40;64.70;;;;;;4955690;29;20872;-87
2021/04/30 02:54:54;;;;;;;17.37;15.70;;;7.30;64.60;;;;;;4956729;29;20389;-86
2021/04/30 02:57:20;;;;;;;17.80;16.00;;;7.40;64.60;;;;;;4957002;29;20605;-86
2021/04/30 02:59:46;;;;;;;22.37;14.70;;;7.40;63.90;;;;;;4938643;29;20174;-86
2021/04/30 03:02:13;;;;;;;17.33;15.63;;;7.40;64.30;;;;;;4955600;29;20548;-85
2021/04/30 03:04:39;;;;;;;20.50;14.43;;;7.30;64.80;;;;;;4955076;29;20458;-86
2021/04/30 03:07:05;;;;;;;20.17;14.65;;;7.40;64.60;;;;;;4955253;29;20421;-84
2021/04/30 03:09:31;;;;;;;19.47;15.17;;;7.30;64.90;;;;;;4955337;29;20175;-86
2021/04/30 03:11:56;;;;;;;17.43;15.07;;;7.40;64.60;;;;;;4954944;29;20458;-86
2021/04/30 03:14:22;;;;;;;16.70;14.90;;;7.40;64.40;;;;;;4955452;29;20182;-87
2021/04/30 03:16:48;;;;;;;15.97;14.33;;;7.30;65.30;;;;;;4955128;29;20174;-87
2021/04/30 03:19:13;;;;;;;19.00;14.27;;;7.20;65.00;;;;;;4955205;29;20178;-86
2021/04/30 03:21:39;;;;;;;19.77;15.30;;;7.40;64.50;;;;;;4955545;29;20225;-86
2021/04/30 03:24:06;;;;;;;15.10;13.33;;;7.30;64.00;;;;;;4937802;29;20182;-86
2021/04/30 03:26:32;;;;;;;21.70;14.73;;;7.40;64.30;;;;;;4955671;29;20540;-86
2021/04/30 03:28:57;;;;;;;17.97;15.10;;;7.40;64.70;;;;;;4944389;29;20410;-86
2021/04/30 03:31:23;;;;;;;28.17;16.77;;;7.30;65.00;;;;;;4965312;29;20476;-86
2021/04/30 03:33:48;;;;;;;17.33;14.70;;;7.20;65.80;;;;;;4976608;29;20264;-86
2021/04/30 03:36:14;;;;;;;18.50;15.40;;;7.30;66.10;;;;;;4959924;29;20178;-86
2021/04/30 03:38:40;;;;;;;18.27;15.53;;;7.30;65.30;;;;;;4955385;29;20210;-86
2021/04/30 03:41:05;;;;;;;24.40;18.63;;;7.20;65.70;;;;;;4955201;29;20166;-87
2021/04/30 03:43:31;;;;;;;23.10;16.90;;;7.20;66.20;;;;;;4954688;29;20175;-86
2021/04/30 03:45:58;;;;;;;19.63;17.53;;;7.10;67.30;;;;;;4957446;28;20174;-86
2021/04/30 03:48:25;;;;;;;26.60;19.93;;;7.20;66.70;;;;;;4958817;29;20170;-86
2021/04/30 03:50:51;;;;;;;21.90;17.13;;;7.10;66.90;;;;;;4958809;29;20421;-85
2021/04/30 03:53:17;;;;;;;23.17;18.37;;;7.20;67.00;;;;;;4957660;28;20470;-87
2021/04/30 03:55:43;;;;;;;20.90;18.70;;;7.30;66.40;;;;;;4958570;29;20422;-86
2021/04/30 03:58:08;;;;;;;25.70;18.10;;;7.20;66.70;;;;;;4959116;29;20190;-87
2021/04/30 04:00:34;;;;;;;20.53;17.30;;;7.20;67.10;;;;;;4958409;29;20393;-86
2021/04/30 04:03:00;;;;;;;21.43;18.87;;;7.20;66.80;;;;;;4957592;28;20189;-87
2021/04/30 04:05:25;;;;;;;25.13;21.33;;;7.10;67.10;;;;;;4958405;29;20393;-86
2021/04/30 04:07:51;;;;;;;21.73;19.57;;;7.10;67.90;;;;;;4941060;29;20175;-87
2021/04/30 04:10:16;;;;;;;23.37;20.07;;;7.10;68.10;;;;;;4958438;29;20175;-86
2021/04/30 04:12:42;;;;;;;23.83;19.77;;;7.10;67.90;;;;;;4956884;29;20221;-86
2021/04/30 04:15:08;;;;;;;24.00;20.73;;;7.10;68.80;;;;;;4958151;29;20171;-87
2021/04/30 04:17:35;;;;;;;29.93;21.90;;;7.20;68.20;;;;;;4958372;29;20182;-86
2021/04/30 04:20:00;;;;;;;27.77;20.80;;;7.20;68.90;;;;;;4958403;29;20424;-87
2021/04/30 04:22:26;;;;;;;27.40;22.63;;;7.20;69.30;;;;;;4958174;29;20508;-86
2021/04/30 04:24:52;;;;;;;37.30;23.30;;;7.10;68.90;;;;;;4958206;29;20171;-86
2021/04/30 04:27:18;;;;;;;32.90;22.63;;;7.20;68.90;;;;;;4940949;29;20182;-86
2021/04/30 04:29:44;;;;;;;24.37;21.20;;;7.30;69.20;;;;;;4958378;29;20218;-86
2021/04/30 04:32:09;;;;;;;28.00;22.23;;;7.40;68.50;;;;;;4940426;29;20214;-86
2021/04/30 04:34:35;;;;;;;26.63;20.80;;;7.40;68.10;;;;;;4941148;29;20202;-86
2021/04/30 04:37:01;;;;;;;31.00;26.50;;;7.40;68.60;;;;;;4957936;29;20170;-86
2021/04/30 04:39:29;;;;;;;28.57;22.80;;;7.30;70.90;;;;;;4958031;29;20292;-86
2021/04/30 04:41:54;;;;;;;45.97;24.23;;;7.20;69.50;;;;;;4958109;29;20442;-86
2021/04/30 04:44:20;;;;;;;30.80;25.57;;;7.20;69.20;;;;;;4958211;29;20484;-85
2021/04/30 04:46:46;;;;;;;35.10;22.93;;;7.20;69.10;;;;;;4958152;29;20533;-88
2021/04/30 04:49:12;;;;;;;30.63;23.77;;;7.20;69.30;;;;;;4958308;29;20415;-86
2021/04/30 04:51:37;;;;;;;30.83;23.57;;;7.40;69.00;;;;;;4957916;29;20198;-85
2021/04/30 04:54:07;;;;;;;30.40;25.38;;;7.30;68.60;;;;;;4746501;29;10001021;-86
2021/04/30 04:56:33;;;;;;;34.03;25.93;;;7.30;69.00;;;;;;4937443;29;20379;-85
2021/04/30 04:58:59;;;;;;;30.27;22.30;;;7.10;69.30;;;;;;4955024;29;20225;-85
2021/04/30 05:01:25;;;;;;;30.40;25.40;;;7.40;69.60;;;;;;4955425;29;20825;-87
2021/04/30 05:03:51;;;;;;;39.03;25.17;;;7.40;69.60;;;;;;4954932;29;20221;-87
2021/04/30 05:06:17;;;;;;;36.47;25.40;;;8.50;70.70;;;;;;4938074;29;20891;-86
2021/04/30 05:08:42;;;;;;;37.77;26.30;;;7.30;69.90;;;;;;4938231;29;20405;-85
2021/04/30 05:11:08;;;;;;;37.07;25.20;;;7.40;69.80;;;;;;4955291;29;20654;-85
2021/04/30 05:13:34;;;;;;;32.87;24.53;;;7.40;69.50;;;;;;4955176;29;20241;-86
2021/04/30 05:16:00;;;;;;;34.20;25.73;;;7.40;69.60;;;;;;4955357;29;20631;-86
2021/04/30 05:18:26;;;;;;;44.77;24.97;;;7.40;69.80;;;;;;4938047;29;20787;-86
2021/04/30 05:20:53;;;;;;;34.23;24.67;;;7.50;69.10;;;;;;4953701;29;20389;-86
2021/04/30 05:23:19;;;;;;;32.97;23.63;;;7.30;69.20;;;;;;4955548;29;20179;-86
2021/04/30 05:25:45;;;;;;;32.20;25.27;;;7.30;70.00;;;;;;4955134;29;20479;-86
2021/04/30 05:28:10;;;;;;;31.60;23.87;;;7.30;69.80;;;;;;4956097;29;20171;-86
2021/04/30 05:30:36;;;;;;;30.90;24.90;;;7.40;69.70;;;;;;4955445;29;20865;-86
2021/04/30 05:33:02;;;;;;;35.90;25.80;;;7.40;70.00;;;;;;4955444;29;20195;-87
2021/04/30 05:35:28;;;;;;;36.87;27.33;;;7.30;70.20;;;;;;4937927;29;20183;-87
2021/04/30 05:37:54;;;;;;;37.97;26.60;;;7.30;71.30;;;;;;4955281;29;20182;-87
2021/04/30 05:40:19;;;;;;;46.30;29.00;;;7.40;70.30;;;;;;4956067;29;20416;-86
2021/04/30 05:42:45;;;;;;;45.20;27.30;;;7.40;70.00;;;;;;4937210;29;20270;-85
2021/04/30 05:45:11;;;;;;;42.83;27.70;;;7.20;70.40;;;;;;4954805;29;20182;-85
2021/04/30 05:47:37;;;;;;;46.40;28.03;;;7.10;70.30;;;;;;4956104;29;20186;-85
2021/04/30 05:50:04;;;;;;;39.77;26.60;;;7.30;70.70;;;;;;4937642;29;20397;-86
2021/04/30 05:52:29;;;;;;;37.77;26.03;;;7.30;70.90;;;;;;4938617;29;20234;-86
2021/04/30 05:54:55;;;;;;;38.87;25.67;;;7.40;70.80;;;;;;4953700;29;20576;-86
2021/04/30 05:57:20;;;;;;;39.07;26.57;;;7.50;70.40;;;;;;4954632;29;20656;-86
2021/04/30 05:59:46;;;;;;;36.43;27.97;;;7.40;70.40;;;;;;4954567;29;20170;-85
2021/04/30 06:02:11;;;;;;;40.20;26.67;;;7.30;70.60;;;;;;4954260;29;20265;-88
2021/04/30 06:04:37;;;;;;;38.30;23.33;;;7.40;71.60;;;;;;4949612;29;20371;-85
2021/04/30 06:07:03;;;;;;;43.70;26.10;;;7.30;71.70;;;;;;4926473;29;20183;-88
2021/04/30 06:09:28;;;;;;;41.77;26.40;;;7.40;71.50;;;;;;4935287;29;20640;-87
2021/04/30 06:11:54;;;;;;;34.70;25.63;;;7.40;72.10;;;;;;4954236;29;20229;-88
2021/04/30 06:14:20;;;;;;;40.80;26.57;;;7.40;72.10;;;;;;4954202;29;20187;-87
2021/04/30 06:16:45;;;;;;;37.40;26.90;;;7.50;72.10;;;;;;4952215;29;20629;-87
2021/04/30 06:19:11;;;;;;;38.53;23.60;;;7.60;71.80;;;;;;4954596;29;20186;-86
2021/04/30 06:21:38;;;;;;;41.10;26.23;;;8.00;72.00;;;;;;4955448;29;20175;-87
2021/04/30 06:24:07;;;;;;;34.23;24.10;;;7.60;71.40;;;;;;4960691;29;20273;-88
2021/04/30 06:26:33;;;;;;;42.73;26.30;;;7.60;71.70;;;;;;4964965;29;20555;-86
2021/04/30 06:28:58;;;;;;;45.23;26.73;;;7.70;71.40;;;;;;4960933;29;20406;-88
2021/04/30 06:31:24;;;;;;;38.20;24.60;;;7.50;71.90;;;;;;4963237;29;20796;-88
2021/04/30 06:33:50;;;;;;;39.90;26.40;;;7.60;72.60;;;;;;4954032;29;20259;-87
2021/04/30 06:36:16;;;;;;;41.47;25.00;;;7.60;71.70;;;;;;4970300;29;20174;-87
2021/04/30 06:38:43;;;;;;;39.37;27.33;;;7.70;71.70;;;;;;4952709;29;20423;-87
2021/04/30 06:41:08;;;;;;;39.07;28.43;;;7.70;71.70;;;;;;4962637;29;20213;-87
2021/04/30 06:43:34;;;;;;;48.57;30.20;;;7.60;71.80;;;;;;4957625;29;20430;-87
2021/04/30 06:45:59;;;;;;;40.30;27.97;;;7.70;71.80;;;;;;4940068;29;20186;-86
2021/04/30 06:48:25;;;;;;;40.97;28.73;;;7.70;71.70;;;;;;4954735;29;20686;-87
2021/04/30 06:50:52;;;;;;;45.20;31.30;;;7.70;72.10;;;;;;4954750;29;20511;-88
2021/04/30 06:53:17;;;;;;;42.87;26.13;;;7.60;72.50;;;;;;4958091;29;20238;-87
2021/04/30 06:55:43;;;;;;;44.67;29.90;;;7.70;71.60;;;;;;4944446;29;20431;-88
2021/04/30 06:58:08;;;;;;;45.27;30.87;;;7.70;71.60;;;;;;4919569;29;20187;-88
2021/04/30 07:00:34;;;;;;;38.90;29.27;;;7.50;71.50;;;;;;4949960;29;20515;-86
2021/04/30 07:02:59;;;;;;;43.67;29.73;;;7.70;71.80;;;;;;4958989;29;20302;-88
2021/04/30 07:05:25;;;;;;;43.70;31.27;;;7.60;72.40;;;;;;4946360;29;20274;-87
2021/04/30 07:07:51;;;;;;;41.83;31.43;;;7.40;72.50;;;;;;4961719;29;20170;-88
2021/04/30 07:10:17;;;;;;;43.03;29.67;;;7.60;72.50;;;;;;4944974;29;20189;-86
2021/04/30 07:12:42;;;;;;;52.50;30.00;;;9.10;73.50;;;;;;4959998;28;20262;-87
2021/04/30 07:15:09;;;;;;;43.47;30.73;;;7.70;71.00;;;;;;4962308;29;20410;-87
2021/04/30 07:17:35;;;;;;;39.97;29.63;;;7.70;70.90;;;;;;4943217;29;20189;-88
2021/04/30 07:20:01;;;;;;;49.30;33.70;;;7.70;71.60;;;;;;4959011;28;20818;-88
2021/04/30 07:22:26;;;;;;;43.30;30.97;;;7.30;71.00;;;;;;4960242;29;20459;-87
2021/04/30 07:24:52;;;;;;;41.80;31.57;;;7.80;71.70;;;;;;4942401;29;20445;-87
2021/04/30 07:27:18;;;;;;;51.83;29.67;;;7.80;70.90;;;;;;4943336;29;20182;-86
2021/04/30 07:29:44;;;;;;;53.80;33.67;;;7.90;70.10;;;;;;4957337;29;20174;-85
2021/04/30 07:32:09;;;;;;;60.20;32.97;;;7.70;70.20;;;;;;4943526;29;20470;-88
2021/04/30 07:34:35;;;;;;;50.50;33.10;;;7.80;70.70;;;;;;4960849;29;20430;-85
2021/04/30 07:37:01;;;;;;;46.20;33.10;;;7.80;70.20;;;;;;4960427;29;20178;-88
2021/04/30 07:39:26;;;;;;;54.13;34.83;;;7.90;69.60;;;;;;4941192;29;20181;-88
2021/04/30 07:41:53;;;;;;;58.37;36.00;;;9.40;72.50;;;;;;4957719;29;20167;-87
2021/04/30 07:44:19;;;;;;;44.90;33.90;;;7.80;70.90;;;;;;4939252;29;20167;-87
2021/04/30 07:46:45;;;;;;;46.67;33.10;;;7.80;70.30;;;;;;4956645;29;20425;-87
2021/04/30 07:49:10;;;;;;;51.83;33.83;;;7.90;69.90;;;;;;4939306;29;20584;-89
2021/04/30 07:51:39;;;;;;;49.60;33.87;;;7.90;69.40;;;;;;4939177;29;20289;-88
2021/04/30 07:54:05;;;;;;;55.27;35.23;;;7.90;69.20;;;;;;4956129;29;20241;-88
2021/04/30 07:56:30;;;;;;;55.80;36.23;;;8.00;68.90;;;;;;4939770;29;20425;-87
2021/04/30 07:58:56;;;;;;;56.50;37.23;;;8.00;69.50;;;;;;4958411;29;20434;-90
2021/04/30 08:01:21;;;;;;;48.70;35.67;;;8.10;69.30;;;;;;4943010;29;20237;-88
2021/04/30 08:03:47;;;;;;;50.93;35.30;;;8.00;68.80;;;;;;4959298;29;20301;-85
2021/04/30 08:06:13;;;;;;;53.27;34.43;;;8.20;68.30;;;;;;4958389;29;20178;-88
2021/04/30 08:08:40;;;;;;;53.37;38.10;;;8.10;68.50;;;;;;4939933;29;20245;-90
2021/04/30 08:11:06;;;;;;;53.43;34.37;;;8.00;68.10;;;;;;4954605;29;20615;-88
2021/04/30 08:13:32;;;;;;;58.60;32.97;;;8.10;68.20;;;;;;4937721;29;20445;-88
2021/04/30 08:15:57;;;;;;;55.47;35.60;;;6.70;66.60;;;;;;4954756;29;20921;-88
2021/04/30 08:18:23;;;;;;;47.37;34.50;;;8.10;68.00;;;;;;4955252;29;20535;-87
2021/04/30 08:20:48;;;;;;;52.87;37.27;;;8.20;68.80;;;;;;4954847;29;20234;-84
2021/04/30 08:23:14;;;;;;;57.90;38.07;;;8.30;68.30;;;;;;4944576;29;20166;-85
2021/04/30 08:25:40;;;;;;;57.63;36.40;;;8.20;68.20;;;;;;4954254;29;20175;-83
2021/04/30 08:28:06;;;;;;;59.03;35.80;;;8.30;68.00;;;;;;4953618;29;20174;-85
2021/04/30 08:30:32;;;;;;;52.90;31.03;;;8.50;67.40;;;;;;4945118;29;20183;-84
2021/04/30 08:32:57;;;;;;;62.90;36.40;;;8.60;66.00;;;;;;4944518;29;20519;-85
2021/04/30 08:35:23;;;;;;;58.43;37.80;;;7.60;64.40;;;;;;4954805;29;20699;-85
2021/04/30 08:37:48;;;;;;;65.97;38.67;;;8.70;66.10;;;;;;4938204;29;20167;-85
2021/04/30 08:40:14;;;;;;;61.27;37.07;;;8.70;65.90;;;;;;4938505;29;20172;-85
2021/04/30 08:42:40;;;;;;;62.63;35.50;;;8.70;65.90;;;;;;4920867;29;20183;-84
2021/04/30 08:45:11;;;;;;;54.63;33.70;;;8.80;65.40;;;;;;4938041;29;20254;-87
2021/04/30 08:47:37;;;;;;;53.80;35.17;;;9.10;64.40;;;;;;4937801;29;20239;-84
2021/04/30 08:50:03;;;;;;;67.80;34.07;;;9.20;64.40;;;;;;4937445;29;20899;-85
2021/04/30 08:52:29;;;;;;;55.20;32.43;;;9.30;63.30;;;;;;4937300;29;20202;-85
2021/04/30 08:54:58;;;;;;;50.83;32.73;;;9.40;62.00;;;;;;4942529;29;20426;-89
2021/04/30 08:57:29;;;;;;;49.23;30.30;;;9.30;61.60;;;;;;4955917;29;21002;-89
2021/04/30 09:00:15;;;;;;;46.67;32.77;;;9.30;62.70;;;;;;4965426;29;20422;-89
2021/04/30 09:03:05;;;;;;;45.47;28.03;;;9.70;62.30;;;;;;4958465;28;20442;-87
2021/04/30 09:05:31;;;;;;;52.03;31.97;;;10.20;61.90;;;;;;5105928;23;20428;-86
2021/04/30 09:08:03;;;;;;;50.33;31.27;;;8.90;64.30;;;;;;4971891;28;20453;-86
2021/04/30 09:10:36;;;;;;;52.70;32.40;;;9.30;61.60;;;;;;4971849;28;20508;-88
2021/04/30 09:13:06;;;;;;;48.00;30.70;;;9.40;61.60;;;;;;4987855;28;20497;-88
2021/04/30 09:15:33;;;;;;;46.70;31.60;;;10.80;61.60;;;;;;4967768;28;20417;-86
2021/04/30 09:18:19;;;;;;;49.60;31.53;;;9.40;63.70;;;;;;4969861;28;20426;-90
2021/04/30 09:20:48;;;;;;;44.80;30.83;;;9.60;60.70;;;;;;4983734;28;20421;-87
2021/04/30 09:23:40;;;;;;;53.37;35.07;;;9.80;61.60;;;;;;4968867;28;20517;-88
2021/04/30 09:26:25;;;;;;;47.23;32.70;;;9.40;59.70;;;;;;4968106;28;20480;-90
2021/04/30 09:31:50;;;;;;;47.10;33.77;;;10.20;59.40;;;;;;5033041;23;20511;-86
2021/04/30 09:34:26;;;;;;;52.27;34.57;;;9.50;61.30;;;;;;4993611;28;20452;-86
2021/04/30 09:37:12;;;;;;;48.73;32.50;;;9.50;60.40;;;;;;4976120;28;20502;-86
2021/04/30 09:40:10;;;;;;;49.83;32.97;;;9.40;60.70;;;;;;4976017;28;20494;-86
2021/04/30 09:42:37;;;;;;;52.90;36.70;;;9.20;61.80;;;;;;4950964;28;20421;-85
2021/04/30 09:45:08;;;;;;;59.63;36.47;;;9.10;61.90;;;;;;4994149;28;20404;-85
2021/04/30 09:47:35;;;;;;;54.57;36.27;;;9.00;63.00;;;;;;4988769;28;20428;-86
2021/04/30 09:50:07;;;;;;;53.27;34.23;;;9.10;62.40;;;;;;4979655;28;20724;-83
2021/04/30 09:52:35;;;;;;;68.23;36.27;;;9.00;62.60;;;;;;4989271;28;20464;-84
2021/04/30 09:55:03;;;;;;;61.87;37.70;;;9.00;62.40;;;;;;4977328;28;20508;-84
2021/04/30 09:57:30;;;;;;;55.70;37.20;;;8.30;61.30;;;;;;4991983;28;20424;-84
2021/04/30 09:59:57;;;;;;;65.40;42.30;;;9.10;62.30;;;;;;4992455;28;20474;-84
2021/04/30 10:02:27;;;;;;;58.20;39.63;;;9.10;62.00;;;;;;4992472;28;20511;-83
2021/04/30 10:04:56;;;;;;;60.10;39.10;;;9.10;62.60;;;;;;4986476;28;20483;-84
2021/04/30 10:07:33;;;;;;;57.10;33.07;;;9.00;62.70;;;;;;4974835;28;20459;-85
2021/04/30 10:10:14;;;;;;;58.13;38.27;;;9.10;62.30;;;;;;4974777;28;20799;-85
2021/04/30 10:12:47;;;;;;;57.30;39.47;;;9.00;63.30;;;;;;4975015;28;20478;-86
2021/04/30 10:15:19;;;;;;;57.17;38.20;;;8.90;62.90;;;;;;4991584;28;20898;-87
2021/04/30 10:17:46;;;;;;;56.47;37.83;;;8.90;64.10;;;;;;4974070;28;20477;-84
2021/04/30 10:20:15;;;;;;;59.60;37.77;;;9.00;63.30;;;;;;4976279;28;20424;-84
2021/04/30 10:22:43;;;;;;;48.40;35.90;;;9.00;63.20;;;;;;4976876;28;20741;-83
2021/04/30 10:25:11;;;;;;;54.07;36.80;;;9.10;62.70;;;;;;4976954;28;20472;-85
2021/04/30 10:27:42;;;;;;;49.60;34.00;;;9.40;63.10;;;;;;4978265;28;20567;-85
2021/04/30 10:30:30;;;;;;;57.77;37.50;;;9.70;62.10;;;;;;4993994;28;20550;-85
2021/04/30 10:33:17;;;;;;;53.97;35.47;;;9.20;61.40;;;;;;4994723;28;20468;-83
2021/04/30 10:35:55;;;;;;;44.77;33.20;;;9.20;61.40;;;;;;4994152;28;20755;-86
2021/04/30 10:38:23;;;;;;;46.07;33.50;;;9.20;62.10;;;;;;4993985;28;20427;-85
2021/04/30 10:41:06;;;;;;;42.13;29.90;;;9.20;62.10;;;;;;4994203;28;20492;-85
2021/04/30 10:43:33;;;;;;;43.33;31.57;;;9.30;61.90;;;;;;4976450;28;20428;-85
2021/04/30 10:46:05;;;;;;;49.30;34.80;;;9.30;62.00;;;;;;4994862;28;20519;-82
2021/04/30 10:48:33;;;;;;;47.70;33.77;;;9.20;62.70;;;;;;4977101;28;20432;-86
2021/04/30 10:51:15;;;;;;;44.60;31.30;;;9.20;62.80;;;;;;4977464;28;20452;-87
2021/04/30 10:53:43;;;;;;;44.13;35.07;;;9.30;63.20;;;;;;4993918;28;20552;-85
2021/04/30 10:56:32;;;;;;;43.47;32.57;;;8.90;62.10;;;;;;4993787;28;20462;-85
2021/04/30 10:58:58;;;;;;;50.27;33.33;;;9.70;62.10;;;;;;4995317;28;20435;-86
2021/04/30 11:01:27;;;;;;;44.53;33.20;;;9.60;61.80;;;;;;4980137;28;20417;-86
2021/04/30 11:04:13;;;;;;;42.57;31.30;;;9.80;61.60;;;;;;4977977;28;20197;-85
2021/04/30 11:07:09;;;;;;;41.03;32.00;;;9.70;60.90;;;;;;4978285;28;20460;-85
2021/04/30 11:09:37;;;;;;;45.63;29.30;;;10.10;59.60;;;;;;4991003;28;20472;-85
2021/04/30 11:12:22;;;;;;;36.30;30.87;;;10.20;59.50;;;;;;4976271;28;20416;-85
2021/04/30 11:18:01;;;;;;;40.60;31.97;;;10.10;58.90;;;;;;4695014;22;20564;-85
2021/04/30 11:20:30;;;;;;;40.23;30.67;;;8.70;59.40;;;;;;5099420;23;20477;-85
2021/04/30 11:23:24;;;;;;;37.73;28.53;;;10.80;62.90;;;;;;4974350;28;20509;-87
2021/04/30 11:25:59;;;;;;;34.90;30.40;;;10.30;59.80;;;;;;4961886;29;20505;-87
2021/04/30 11:28:31;;;;;;;35.23;28.83;;;10.60;60.10;;;;;;4963994;29;20424;-88
2021/04/30 11:31:12;;;;;;;35.77;27.30;;;10.60;58.90;;;;;;4961337;29;20426;-89
2021/04/30 11:33:42;;;;;;;32.00;28.13;;;11.10;58.30;;;;;;4964751;28;20395;-86
2021/04/30 11:36:14;;;;;;;32.53;27.40;;;13.10;58.80;;;;;;4970210;28;20423;-88
2021/04/30 11:39:03;;;;;;;27.87;24.80;;;13.00;57.90;;;;;;4948902;29;20855;-88
2021/04/30 11:41:41;;;;;;;30.63;25.33;;;13.00;55.70;;;;;;5001025;23;20491;-89
2021/04/30 11:44:10;;;;;;;29.63;25.37;;;13.60;54.80;;;;;;5178488;22;21569;-87
2021/04/30 11:47:01;;;;;;;26.20;23.57;;;14.80;55.20;;;;;;4971960;28;20434;-89
2021/04/30 11:49:26;;;;;;;32.03;23.33;;;13.80;55.40;;;;;;4973099;28;20477;-89
2021/04/30 11:51:52;;;;;;;26.27;23.57;;;13.30;52.30;;;;;;4956661;29;20417;-89
2021/04/30 11:54:29;;;;;;;25.67;22.80;;;15.30;52.00;;;;;;4939852;29;20419;-87
2021/04/30 11:57:07;;;;;;;26.83;22.47;;;15.10;50.30;;;;;;4940227;29;20237;-87
2021/04/30 11:59:34;;;;;;;25.93;23.13;;;15.80;49.30;;;;;;4957219;29;20497;-87
2021/04/30 12:02:04;;;;;;;24.50;21.97;;;14.40;47.00;;;;;;4956786;29;20564;-87
2021/04/30 12:04:47;;;;;;;26.83;24.10;;;16.10;47.80;;;;;;4955752;29;20498;-87
2021/04/30 12:07:15;;;;;;;27.90;23.57;;;15.80;47.70;;;;;;4958158;28;20501;-87
2021/04/30 12:09:41;;;;;;;27.83;24.90;;;15.20;48.10;;;;;;4959497;29;20446;-89
2021/04/30 12:12:11;;;;;;;25.73;23.13;;;14.80;48.00;;;;;;4959384;29;20418;-88
2021/04/30 12:14:45;;;;;;;26.63;21.90;;;14.80;49.00;;;;;;4942500;29;21001;-88
2021/04/30 12:17:31;;;;;;;26.80;23.70;;;14.80;49.80;;;;;;4960111;29;20418;-88
2021/04/30 12:20:15;;;;;;;34.13;26.57;;;13.70;50.70;;;;;;4960171;29;20410;-87
2021/04/30 12:22:49;;;;;;;27.10;23.20;;;13.00;51.90;;;;;;4941551;29;20642;-87
2021/04/30 12:25:23;;;;;;;32.23;25.97;;;12.60;52.90;;;;;;4615266;28;9999615;-86
2021/04/30 12:27:50;;;;;;;29.13;26.20;;;12.50;52.90;;;;;;4957170;29;20177;-87
2021/04/30 12:30:31;;;;;;;30.03;26.20;;;12.40;53.30;;;;;;4960405;29;20521;-90
2021/04/30 12:32:58;;;;;;;28.03;24.00;;;12.60;53.30;;;;;;4960389;29;20426;-87
2021/04/30 12:35:24;;;;;;;35.23;28.17;;;12.70;52.90;;;;;;4960910;29;20457;-87
2021/04/30 12:38:16;;;;;;;34.83;27.73;;;13.10;53.00;;;;;;4965408;29;20495;-88
2021/04/30 12:40:48;;;;;;;27.43;24.60;;;13.40;52.50;;;;;;4949285;28;20461;-90
2021/04/30 12:43:29;;;;;;;32.23;25.87;;;13.60;52.40;;;;;;4959041;29;20474;-89
2021/04/30 12:46:22;;;;;;;27.10;24.50;;;14.80;51.70;;;;;;4961879;29;20465;-87
2021/04/30 12:48:53;;;;;;;30.80;22.50;;;14.70;50.30;;;;;;4960473;29;20470;-88